Spring Ranch, Nebraska
Current Conditions -  °F | °C
As of 10:53 PM on Friday 28 Nov 2014 (Local Time) from KHSI Reporting Station
Clear Clear  
Wind Chill: 45°   Ceiling: Unl
Heat Index: 49°   Visibility: 10mi
Dew Point: 19°   Wind: 9mph
Humidity: 31%   Direction: 210°SSW
Pressure: 29.63"   Gusts: NA
Location:  40.387°N, 98.1945°W
Report Text: KHSI 290453Z AUTO 21008KT 10SM CLR 09/M07 A2963 RMK AO2 SLP034 T00941072
Loading
Personal Weather Stations






























Interactive Weather Map New forecast layout! Learn more

10-Day Weather Forecast

Advertisements
Track Severe Weather on mobile